Elkhorn City, Kentucky
Current Conditions -  °F | °C
As of 3:55 PM on Tuesday 21 Oct 2014 (Local Time) from KPBX Reporting Station
Overcast Overcast  
Wind Chill: 53°   Ceiling: 6000
Heat Index: 53°   Visibility: 10mi
Dew Point: 40°   Wind: 8mph
Humidity: 61%   Direction: 300°WNW
Pressure: 30.01"   Gusts: NA
Location:  37.3°N, 82.35°W
Report Text: KPBX 211955Z AUTO 30007KT 10SM OVC060 12/04 A3001 RMK AO2 T01150042
Loading
Personal Weather Stations






























Interactive Weather Map
Tropical Storm Tracking
New forecast layout! Learn more

10-Day Weather Forecast

Advertisements
Track Severe Weather on mobile